Time,TemperatureF,DewpointF,PressureIn,WindDirection,WindDirectionDegrees,WindSpeedMPH,WindSpeedGustMPH,Humidity,HourlyPrecipIn,Conditions,Clouds,dailyrainin,SoftwareType,DateUTC
2013-08-31 00:00:00,34.0,26.0,29.90,WNW,293,4.0,6.0,73,0.00,,,-99.99,,2013-08-31 08:00:00,
2013-08-31 00:42:00,34.0,26.0,29.90,WNW,293,4.0,6.0,73,0.00,,,-99.99,,2013-08-31 08:42:00,
2013-08-31 00:52:00,34.0,26.0,29.90,WNW,293,4.0,6.0,73,0.00,,,-99.99,,2013-08-31 08:52:00,
2013-08-31 01:00:00,33.0,24.0,29.90,West,277,3.0,7.0,70,0.00,,,0.01,,2013-08-31 09:00:00,
2013-08-31 01:44:00,33.0,24.0,29.90,West,277,3.0,7.0,70,0.00,,,0.01,,2013-08-31 09:44:00,
2013-08-31 01:53:00,33.0,24.0,29.90,West,277,3.0,7.0,70,0.00,,,0.01,,2013-08-31 09:53:00,
2013-08-31 02:00:00,33.0,24.0,29.92,WNW,286,2.0,9.0,70,0.00,,,0.01,,2013-08-31 10:00:00,
2013-08-31 02:43:00,33.0,24.0,29.92,WNW,286,2.0,9.0,70,0.00,,,0.01,,2013-08-31 10:43:00,
2013-08-31 02:53:00,33.0,24.0,29.92,WNW,286,2.0,9.0,70,0.00,,,0.01,,2013-08-31 10:53:00,
2013-08-31 03:00:00,32.0,24.0,29.92,NW,323,3.0,6.0,72,0.00,,,0.01,,2013-08-31 11:00:00,
2013-08-31 03:42:00,32.0,24.0,29.92,NW,323,3.0,6.0,72,0.00,,,0.01,,2013-08-31 11:42:00,
2013-08-31 03:52:00,32.0,24.0,29.92,NW,323,3.0,6.0,72,0.00,,,0.01,,2013-08-31 11:52:00,
2013-08-31 04:00:00,30.0,23.0,29.92,WNW,289,3.0,7.0,76,0.00,,,0.01,,2013-08-31 12:00:00,
2013-08-31 04:42:00,30.0,23.0,29.92,WNW,289,3.0,7.0,76,0.00,,,0.01,,2013-08-31 12:42:00,
2013-08-31 04:52:00,30.0,23.0,29.92,WNW,289,3.0,7.0,76,0.00,,,0.01,,2013-08-31 12:52:00,
2013-08-31 05:00:00,30.0,21.0,29.92,WNW,293,1.0,6.0,69,0.00,,,-99.99,,2013-08-31 13:00:00,
2013-08-31 05:42:00,30.0,21.0,29.92,WNW,293,1.0,6.0,69,0.00,,,-99.99,,2013-08-31 13:42:00,
2013-08-31 05:52:00,30.0,21.0,29.92,WNW,293,1.0,6.0,69,0.00,,,-99.99,,2013-08-31 13:52:00,
2013-08-31 06:00:00,30.0,22.0,29.90,East,87,1.0,3.0,71,0.00,,,0.01,,2013-08-31 14:00:00,
2013-08-31 06:42:00,30.0,22.0,29.90,East,87,1.0,3.0,71,0.00,,,0.01,,2013-08-31 14:42:00,
2013-08-31 06:52:00,30.0,22.0,29.90,East,87,1.0,3.0,71,0.00,,,0.01,,2013-08-31 14:52:00,
2013-08-31 07:00:00,31.0,19.0,29.90,NW,315,1.0,5.0,61,0.00,,,0.01,,2013-08-31 15:00:00,
2013-08-31 07:45:00,31.0,19.0,29.90,NW,315,1.0,5.0,61,0.00,,,0.01,,2013-08-31 15:45:00,
2013-08-31 07:55:00,31.0,19.0,29.90,NW,315,1.0,5.0,61,0.00,,,0.01,,2013-08-31 15:55:00,
2013-08-31 08:00:00,32.0,20.0,29.90,WNW,300,0.0,2.0,61,0.00,,,0.00,,2013-08-31 16:00:00,
2013-08-31 08:44:00,32.0,20.0,29.90,WNW,300,0.0,2.0,61,0.00,,,0.00,,2013-08-31 16:44:00,
2013-08-31 08:52:00,32.0,20.0,29.90,WNW,300,0.0,2.0,61,0.00,,,0.00,,2013-08-31 16:52:00,
2013-08-31 09:00:00,36.0,20.0,29.90,SE,141,0.0,2.0,52,0.00,,,0.00,,2013-08-31 17:00:00,
2013-08-31 09:43:00,36.0,20.0,29.90,SE,141,0.0,2.0,52,0.00,,,0.00,,2013-08-31 17:43:00,
2013-08-31 09:53:00,36.0,20.0,29.90,SE,141,0.0,2.0,52,0.00,,,0.00,,2013-08-31 17:53:00,
2013-08-31 10:00:00,38.0,19.0,29.90,SE,126,1.0,5.0,46,0.00,,,0.00,,2013-08-31 18:00:00,
2013-08-31 10:42:00,38.0,19.0,29.90,SE,126,1.0,5.0,46,0.00,,,0.00,,2013-08-31 18:42:00,
2013-08-31 10:52:00,38.0,19.0,29.90,SE,126,1.0,5.0,46,0.00,,,0.00,,2013-08-31 18:52:00,
2013-08-31 11:00:00,40.0,16.0,29.89,WNW,288,2.0,5.0,38,0.00,,,0.00,,2013-08-31 19:00:00,
2013-08-31 11:42:00,40.0,16.0,29.89,WNW,288,2.0,5.0,38,0.00,,,0.00,,2013-08-31 19:42:00,
2013-08-31 11:52:00,40.0,16.0,29.89,WNW,288,2.0,5.0,38,0.00,,,0.00,,2013-08-31 19:52:00,
2013-08-31 12:00:00,44.0,18.0,29.89,WSW,255,3.0,9.0,35,0.00,,,0.00,,2013-08-31 20:00:00,
2013-08-31 12:42:00,44.0,18.0,29.89,WSW,255,3.0,9.0,35,0.00,,,0.00,,2013-08-31 20:42:00,
2013-08-31 12:52:00,44.0,18.0,29.89,WSW,255,3.0,9.0,35,0.00,,,0.00,,2013-08-31 20:52:00,
2013-08-31 13:00:00,42.0,19.0,29.89,West,260,4.0,10.0,39,0.00,,,0.00,,2013-08-31 21:00:00,
2013-08-31 13:44:00,42.0,19.0,29.89,West,260,4.0,10.0,39,0.00,,,0.00,,2013-08-31 21:44:00,
2013-08-31 13:54:00,42.0,19.0,29.89,West,260,4.0,10.0,39,0.00,,,0.00,,2013-08-31 21:54:00,
2013-08-31 14:00:00,45.0,19.0,29.89,WSW,249,2.0,8.0,35,0.00,,,0.00,,2013-08-31 22:00:00,
2013-08-31 14:43:00,45.0,19.0,29.89,WSW,249,2.0,8.0,35,0.00,,,0.00,,2013-08-31 22:43:00,
2013-08-31 14:53:00,45.0,19.0,29.89,WSW,249,2.0,8.0,35,0.00,,,0.00,,2013-08-31 22:53:00,
2013-08-31 15:00:00,45.0,21.0,29.88,SW,225,1.0,6.0,38,0.00,,,0.00,,2013-08-31 23:00:00,
2013-08-31 15:42:00,45.0,21.0,29.88,SW,225,1.0,6.0,38,0.00,,,0.00,,2013-08-31 23:42:00,
2013-08-31 15:52:00,45.0,21.0,29.88,SW,225,1.0,6.0,38,0.00,,,0.00,,2013-08-31 23:52:00,
2013-08-31 16:00:00,45.0,21.0,29.87,East,99,2.0,6.0,38,0.00,,,0.00,,2013-09-01 00:00:00,
2013-08-31 16:42:00,45.0,21.0,29.87,East,99,2.0,6.0,38,0.00,,,0.00,,2013-09-01 00:42:00,
2013-08-31 16:52:00,45.0,21.0,29.87,East,99,2.0,6.0,38,0.00,,,0.00,,2013-09-01 00:52:00,
2013-08-31 17:00:00,44.0,21.0,29.87,SSW,192,2.0,7.0,40,0.00,,,0.00,,2013-09-01 01:00:00,
2013-08-31 17:42:00,44.0,21.0,29.87,SSW,192,2.0,7.0,40,0.00,,,0.00,,2013-09-01 01:42:00,
2013-08-31 17:52:00,44.0,21.0,29.87,SSW,192,2.0,7.0,40,0.00,,,0.00,,2013-09-01 01:52:00,
2013-08-31 18:00:00,44.0,16.0,29.87,WSW,253,3.0,7.0,32,0.00,,,0.00,,2013-09-01 02:00:00,
2013-08-31 18:43:00,44.0,16.0,29.87,WSW,253,3.0,7.0,32,0.00,,,0.00,,2013-09-01 02:43:00,
2013-08-31 18:53:00,44.0,16.0,29.87,WSW,253,3.0,7.0,32,0.00,,,0.00,,2013-09-01 02:53:00,
2013-08-31 19:00:00,-999.0,-99.9,29.86,SW,234,0.0,5.0,-999,-99.99,,,-99.99,,2013-09-01 03:00:00,
2013-08-31 19:44:00,41.0,20.0,29.86,SW,234,0.0,5.0,43,0.00,,,0.00,,2013-09-01 03:44:00,
2013-08-31 19:54:00,41.0,20.0,29.86,SW,234,0.0,5.0,43,0.00,,,0.00,,2013-09-01 03:54:00,
2013-08-31 20:00:00,38.0,19.0,29.85,WNW,297,3.0,4.0,46,0.00,,,0.00,,2013-09-01 04:00:00,
2013-08-31 20:43:00,38.0,19.0,29.85,WNW,297,3.0,4.0,46,0.00,,,0.00,,2013-09-01 04:43:00,
2013-08-31 20:54:00,38.0,19.0,29.85,WNW,297,3.0,4.0,46,0.00,,,0.00,,2013-09-01 04:54:00,
2013-08-31 21:00:00,36.0,13.0,29.85,NW,320,4.0,6.0,39,0.00,,,0.00,,2013-09-01 05:00:00,
2013-08-31 21:43:00,36.0,13.0,29.85,NW,320,4.0,6.0,39,0.00,,,0.00,,2013-09-01 05:43:00,
2013-08-31 21:52:00,36.0,13.0,29.85,NW,320,4.0,6.0,39,0.00,,,0.00,,2013-09-01 05:52:00,
2013-08-31 22:00:00,36.0,-99.9,29.85,North,357,3.0,7.0,37,0.00,,,0.00,,2013-09-01 06:00:00,
2013-08-31 22:42:00,36.0,-99.9,29.85,North,357,3.0,7.0,37,0.00,,,0.00,,2013-09-01 06:42:00,
2013-08-31 22:52:00,36.0,-99.9,29.85,North,357,3.0,7.0,37,0.00,,,0.00,,2013-09-01 06:52:00,
2013-08-31 23:00:00,34.0,13.0,29.85,ENE,73,1.0,6.0,41,0.00,,,0.00,,2013-09-01 07:00:00,
2013-08-31 23:42:00,34.0,13.0,29.85,ENE,73,1.0,6.0,41,0.00,,,0.00,,2013-09-01 07:42:00,
2013-08-31 23:52:00,34.0,13.0,29.85,ENE,73,1.0,6.0,41,0.00,,,0.00,,2013-09-01 07:52:00,